createdAt,value
2022-08-17T00:01:17.862Z,75.96
2022-08-17T00:06:26.478Z,76.10
2022-08-17T00:11:34.730Z,75.90
2022-08-17T00:16:55.803Z,78.49
2022-08-17T00:22:33.752Z,79.18
2022-08-17T00:27:20.490Z,78.20
2022-08-17T00:33:14.483Z,77.81
2022-08-17T00:37:43.898Z,76.11
2022-08-17T00:42:46.180Z,73.41
2022-08-17T00:47:48.221Z,70.76
2022-08-17T00:52:54.799Z,71.83
2022-08-17T00:58:00.021Z,71.12
2022-08-17T01:03:15.179Z,70.32
2022-08-17T01:08:18.946Z,69.66
2022-08-17T01:13:22.315Z,68.67
2022-08-17T01:18:27.746Z,68.19
2022-08-17T01:23:29.387Z,68.54
2022-08-17T01:28:54.348Z,67.54
2022-08-17T01:33:55.746Z,68.29
2022-08-17T01:38:57.256Z,68.11
2022-08-17T01:44:02.459Z,67.88
2022-08-17T01:49:10.855Z,68.58
2022-08-17T01:54:14.913Z,67.91
2022-08-17T01:59:18.780Z,68.42
2022-08-17T02:04:20.360Z,69.29
2022-08-17T02:09:25.686Z,68.14
2022-08-17T02:14:27.465Z,68.67
2022-08-17T02:19:31.385Z,69.19
2022-08-17T02:25:00.360Z,69.03
2022-08-17T02:29:57.636Z,69.00
2022-08-17T02:35:00.317Z,67.86
2022-08-17T02:40:08.705Z,69.30
2022-08-17T02:45:13.687Z,69.36
2022-08-17T02:50:17.909Z,68.94
2022-08-17T02:55:24.149Z,69.81
2022-08-17T03:00:30.338Z,69.72
2022-08-17T03:05:34.460Z,70.15
2022-08-17T03:10:35.993Z,69.49
2022-08-17T03:15:47.311Z,69.66
2022-08-17T03:20:50.129Z,69.66
2022-08-17T03:25:53.069Z,69.93
2022-08-17T03:30:55.273Z,69.33
2022-08-17T03:35:57.098Z,70.44
2022-08-17T03:40:59.889Z,70.67
2022-08-17T03:46:03.045Z,70.36
2022-08-17T03:51:05.596Z,71.64
2022-08-17T03:56:07.086Z,70.88
2022-08-17T04:01:09.461Z,71.68
2022-08-17T04:06:11.021Z,70.77
2022-08-17T04:11:19.953Z,70.66
2022-08-17T04:16:21.362Z,71.10
2022-08-17T04:21:23.641Z,69.75
2022-08-17T04:26:52.822Z,69.15
2022-08-17T04:31:46.884Z,67.88
2022-08-17T04:36:50.530Z,67.70
2022-08-17T04:41:52.060Z,68.26
2022-08-17T04:46:53.672Z,68.28
2022-08-17T04:51:59.992Z,67.53
2022-08-17T04:57:05.883Z,67.14
2022-08-17T05:02:07.430Z,67.42
2022-08-17T05:07:09.311Z,66.18
2022-08-17T05:12:10.816Z,65.67
2022-08-17T05:17:12.259Z,65.53
2022-08-17T05:22:17.332Z,65.11
2022-08-17T05:27:19.273Z,65.04
2022-08-17T05:32:39.055Z,64.42
2022-08-17T05:37:41.746Z,65.41
2022-08-17T05:42:51.589Z,66.56
2022-08-17T05:47:54.308Z,64.63
2022-08-17T05:53:20.795Z,66.18
2022-08-17T05:58:51.352Z,66.03
2022-08-17T06:04:10.160Z,67.14
2022-08-17T06:09:44.188Z,64.85
2022-08-17T06:15:08.732Z,63.77
2022-08-17T06:20:44.465Z,63.90
2022-08-17T06:25:51.954Z,65.13
2022-08-17T06:31:04.826Z,65.41
2022-08-17T06:36:26.082Z,65.29
2022-08-17T06:41:50.919Z,64.13
2022-08-17T06:52:59.561Z,63.37
2022-08-17T06:58:05.379Z,63.61
2022-08-17T07:03:27.230Z,61.19
2022-08-17T07:14:33.260Z,60.83
2022-08-17T07:32:04.066Z,61.24
2022-08-17T07:37:24.937Z,60.62
2022-08-17T07:42:26.986Z,60.91
2022-08-17T07:47:30.628Z,60.64
2022-08-17T07:52:50.895Z,61.20
2022-08-17T07:57:59.102Z,61.94
2022-08-17T08:03:11.383Z,61.28
2022-08-17T08:08:37.223Z,62.52
2022-08-17T08:13:40.864Z,62.15
2022-08-17T08:18:55.429Z,61.31
2022-08-17T08:24:20.868Z,62.01
2022-08-17T08:29:54.442Z,61.19
2022-08-17T08:35:21.609Z,62.43
2022-08-17T08:40:36.786Z,63.77
2022-08-17T08:45:44.352Z,63.46
2022-08-17T08:50:54.582Z,65.26
2022-08-17T08:56:04.670Z,64.31
2022-08-17T09:01:17.599Z,65.12
2022-08-17T09:06:45.169Z,65.22
2022-08-17T09:12:03.912Z,66.18
2022-08-17T09:17:19.292Z,66.28
2022-08-17T09:22:29.700Z,66.27
2022-08-17T09:27:42.492Z,66.87
2022-08-17T09:32:47.160Z,68.24
2022-08-17T09:38:06.015Z,69.69
2022-08-17T09:43:18.720Z,69.04
2022-08-17T09:48:28.076Z,70.23
2022-08-17T09:53:31.977Z,70.53
2022-08-17T09:58:45.128Z,71.61
2022-08-17T10:04:12.979Z,73.62
2022-08-17T10:09:21.798Z,73.74
2022-08-17T10:14:44.080Z,73.38
2022-08-17T10:19:58.101Z,73.73
2022-08-17T10:25:23.154Z,73.06
2022-08-17T10:30:29.820Z,71.80
2022-08-17T10:35:31.131Z,71.15
2022-08-17T10:40:37.947Z,70.27
2022-08-17T10:46:30.831Z,70.93
2022-08-17T10:51:38.948Z,69.19
2022-08-17T10:56:46.680Z,68.15
2022-08-17T11:02:22.174Z,65.99
2022-08-17T11:07:54.851Z,59.07
2022-08-17T11:13:15.000Z,56.19
2022-08-17T11:18:53.355Z,54.38
2022-08-17T11:24:06.026Z,59.12
2022-08-17T11:29:18.993Z,57.72
2022-08-17T11:34:26.576Z,58.81
2022-08-17T11:39:43.442Z,57.03
2022-08-17T11:45:31.805Z,56.80
2022-08-17T11:50:37.067Z,58.96
2022-08-17T11:55:41.917Z,59.33
2022-08-17T12:00:46.115Z,59.15
2022-08-17T12:05:48.347Z,55.88
2022-08-17T12:10:58.424Z,53.02
2022-08-17T12:16:00.531Z,51.57
2022-08-17T12:21:05.028Z,52.08
2022-08-17T12:26:22.113Z,48.83
2022-08-17T12:31:30.837Z,51.52
2022-08-17T12:36:33.586Z,51.17
2022-08-17T12:41:40.682Z,47.91
2022-08-17T12:47:04.750Z,46.81
2022-08-17T12:52:14.280Z,47.96
2022-08-17T12:57:20.355Z,50.19
2022-08-17T13:02:32.273Z,48.75
2022-08-17T13:07:40.540Z,46.27
2022-08-17T13:12:41.939Z,48.42
2022-08-17T13:17:43.726Z,46.60
2022-08-17T13:22:53.335Z,47.11
2022-08-17T13:27:56.912Z,47.80
2022-08-17T13:32:59.298Z,47.49
2022-08-17T13:38:07.895Z,47.97
2022-08-17T13:43:10.303Z,48.61
2022-08-17T13:48:30.492Z,48.49
2022-08-17T13:53:36.436Z,49.57
2022-08-17T13:59:00.699Z,48.58
2022-08-17T14:04:08.580Z,50.54
2022-08-17T14:09:10.401Z,49.67
2022-08-17T14:14:13.077Z,48.88
2022-08-17T14:19:15.016Z,49.25
2022-08-17T14:24:27.495Z,49.76
2022-08-17T14:29:43.195Z,49.57
2022-08-17T14:34:44.929Z,51.37
2022-08-17T14:39:47.495Z,51.95
2022-08-17T14:44:49.154Z,53.70
2022-08-17T14:49:50.606Z,54.39
2022-08-17T14:54:53.100Z,55.92
2022-08-17T14:59:55.657Z,53.68
2022-08-17T15:05:02.095Z,58.73
2022-08-17T15:10:03.925Z,54.42
2022-08-17T15:15:06.949Z,57.21
2022-08-17T15:20:14.146Z,57.02
2022-08-17T15:25:17.276Z,56.57
2022-08-17T15:30:18.946Z,58.02
2022-08-17T15:35:22.090Z,58.90
2022-08-17T15:40:29.042Z,57.49
2022-08-17T15:45:30.634Z,58.70
2022-08-17T15:50:32.540Z,59.28
2022-08-17T15:55:34.637Z,59.35
2022-08-17T16:00:44.124Z,58.94
2022-08-17T16:05:54.748Z,58.81
2022-08-17T16:10:57.700Z,59.18
2022-08-17T16:15:59.149Z,58.05
2022-08-17T16:21:03.078Z,57.54
2022-08-17T16:26:04.689Z,59.74
2022-08-17T16:31:08.119Z,59.00
2022-08-17T16:36:11.014Z,58.21
2022-08-17T16:41:15.170Z,58.72
2022-08-17T16:46:16.658Z,58.97
2022-08-17T16:51:18.192Z,58.78
2022-08-17T16:56:20.395Z,59.73
2022-08-17T17:01:21.979Z,59.33
2022-08-17T17:06:54.103Z,59.65
2022-08-17T17:11:59.523Z,59.25
2022-08-17T17:17:10.584Z,59.84
2022-08-17T17:22:19.293Z,60.92
2022-08-17T17:27:20.647Z,62.04
2022-08-17T17:32:34.010Z,62.39
2022-08-17T17:37:36.301Z,62.66
2022-08-17T17:42:41.889Z,62.61
2022-08-17T17:47:44.789Z,62.52
2022-08-17T17:53:02.913Z,62.85
2022-08-17T17:58:16.515Z,63.77
2022-08-17T18:03:53.451Z,64.20
2022-08-17T18:09:06.809Z,63.53
2022-08-17T18:14:14.179Z,63.74
2022-08-17T18:19:18.732Z,66.33
2022-08-17T18:24:35.991Z,66.15
2022-08-17T18:29:46.221Z,66.82
2022-08-17T18:34:50.904Z,66.65
2022-08-17T18:39:52.430Z,66.03
2022-08-17T18:44:55.668Z,67.44
2022-08-17T18:50:19.325Z,68.71
2022-08-17T18:55:27.130Z,69.27
2022-08-17T19:00:34.627Z,69.29
2022-08-17T19:05:43.159Z,69.23
2022-08-17T19:10:47.337Z,69.72
2022-08-17T19:16:14.246Z,69.73
2022-08-17T19:21:22.335Z,70.95
2022-08-17T19:26:54.896Z,71.38
2022-08-17T19:31:50.093Z,72.81
2022-08-17T19:37:01.966Z,73.25
2022-08-17T19:42:28.299Z,73.72
2022-08-17T19:48:03.116Z,74.35
2022-08-17T19:54:01.588Z,74.67
2022-08-17T19:58:55.117Z,75.45
2022-08-17T20:04:06.627Z,74.93
2022-08-17T20:09:24.942Z,75.02
2022-08-17T20:14:39.631Z,74.64
2022-08-17T20:20:19.617Z,74.86
2022-08-17T20:25:32.577Z,75.40
2022-08-17T20:30:41.922Z,75.93
2022-08-17T20:35:59.754Z,76.62
2022-08-17T20:41:03.931Z,76.67
2022-08-17T20:46:33.415Z,77.28
2022-08-17T20:51:41.460Z,78.55
2022-08-17T20:57:02.708Z,79.07
2022-08-17T21:02:19.354Z,80.31
2022-08-17T21:07:51.955Z,80.88
2022-08-17T21:13:02.156Z,80.82
2022-08-17T21:18:22.474Z,83.47
2022-08-17T21:23:41.250Z,83.40
2022-08-17T21:29:01.667Z,84.07
2022-08-17T21:34:21.581Z,85.54
2022-08-17T21:39:33.589Z,86.19
2022-08-17T21:44:40.238Z,86.79
2022-08-17T21:49:42.025Z,88.96
2022-08-17T21:54:51.419Z,88.90
2022-08-17T21:59:58.992Z,88.52
2022-08-17T22:05:10.393Z,89.56
2022-08-17T22:10:36.986Z,91.69
2022-08-17T22:15:40.950Z,90.98
2022-08-17T22:20:42.422Z,91.93
2022-08-17T22:25:58.044Z,92.21
2022-08-17T22:31:02.206Z,92.72
2022-08-17T22:36:22.603Z,93.50
2022-08-17T22:41:53.713Z,92.95
2022-08-17T22:47:01.970Z,95.92
2022-08-17T22:52:32.185Z,93.98
2022-08-17T22:57:36.189Z,94.85
2022-08-17T23:02:55.196Z,95.83
2022-08-17T23:07:57.601Z,96.48
2022-08-17T23:13:02.104Z,97.04
2022-08-17T23:18:03.938Z,97.10
2022-08-17T23:23:07.297Z,97.84
2022-08-17T23:28:08.762Z,95.42
2022-08-17T23:33:35.039Z,97.43
2022-08-17T23:38:36.746Z,97.55
2022-08-17T23:43:39.468Z,97.93
2022-08-17T23:48:41.039Z,99.23
2022-08-17T23:53:45.876Z,99.66
2022-08-17T23:58:47.307Z,100.00
